createdAt,value
2022-12-11T00:02:08.121Z,12.07
2022-12-11T00:04:34.526Z,13.00
2022-12-11T00:07:00.936Z,8.60
2022-12-11T00:09:27.331Z,11.20
2022-12-11T00:11:53.734Z,11.05
2022-12-11T00:14:20.113Z,11.00
2022-12-11T00:16:48.005Z,11.90
2022-12-11T00:19:14.426Z,9.65
2022-12-11T00:21:40.837Z,9.85
2022-12-11T00:24:07.389Z,11.57
2022-12-11T00:26:33.772Z,8.63
2022-12-11T00:29:00.157Z,9.68
2022-12-11T00:31:26.632Z,10.98
2022-12-11T00:33:53.062Z,7.05
2022-12-11T00:36:24.338Z,9.10
2022-12-11T00:38:50.760Z,7.65
2022-12-11T00:41:17.438Z,11.25
2022-12-11T00:43:43.875Z,9.80
2022-12-11T00:46:10.616Z,11.63
2022-12-11T00:48:37.166Z,10.77
2022-12-11T00:51:03.662Z,10.07
2022-12-11T00:53:30.130Z,14.15
2022-12-11T00:55:56.510Z,12.65
2022-12-11T00:58:22.960Z,8.40
2022-12-11T01:00:49.340Z,10.35
2022-12-11T01:03:15.950Z,8.52
2022-12-11T01:05:42.491Z,8.82
2022-12-11T01:08:08.958Z,10.70
2022-12-11T01:10:35.472Z,11.52
2022-12-11T01:13:04.100Z,11.07
2022-12-11T01:15:32.555Z,8.88
2022-12-11T01:17:58.996Z,10.90
2022-12-11T01:20:25.790Z,12.95
2022-12-11T01:22:53.273Z,10.02
2022-12-11T01:25:19.693Z,10.88
2022-12-11T01:27:46.101Z,9.63
2022-12-11T01:30:12.579Z,10.15
2022-12-11T01:32:38.979Z,12.32
2022-12-11T01:35:06.500Z,9.55
2022-12-11T01:37:33.173Z,8.98
2022-12-11T01:40:00.479Z,10.23
2022-12-11T01:42:26.981Z,10.23
2022-12-11T01:44:53.254Z,10.30
2022-12-11T01:47:19.649Z,12.30
2022-12-11T01:49:46.054Z,11.25
2022-12-11T01:52:18.542Z,8.82
2022-12-11T01:54:44.990Z,10.23
2022-12-11T01:57:11.430Z,10.45
2022-12-11T01:59:39.780Z,11.95
2022-12-11T02:02:12.245Z,13.93
2022-12-11T02:04:38.981Z,9.20
2022-12-11T02:07:05.429Z,11.70
2022-12-11T02:09:33.197Z,10.52
2022-12-11T02:12:12.824Z,10.13
2022-12-11T02:14:59.921Z,12.52
2022-12-11T02:17:32.082Z,9.50
2022-12-11T02:20:30.951Z,10.15
2022-12-11T02:23:06.109Z,10.77
2022-12-11T02:26:06.369Z,14.32
2022-12-11T02:28:41.630Z,11.10
2022-12-11T02:31:19.803Z,11.70
2022-12-11T02:34:09.486Z,13.40
2022-12-11T02:36:38.088Z,13.90
2022-12-11T02:39:04.651Z,9.98
2022-12-11T02:41:31.063Z,11.02
2022-12-11T02:43:57.471Z,11.77
2022-12-11T02:46:23.880Z,12.80
2022-12-11T02:48:50.474Z,10.77
2022-12-11T02:51:17.935Z,11.52
2022-12-11T02:53:44.306Z,11.20
2022-12-11T02:56:21.703Z,13.88
2022-12-11T02:58:52.708Z,10.52
2022-12-11T03:01:23.337Z,12.00
2022-12-11T03:03:49.737Z,11.48
2022-12-11T03:06:17.651Z,11.45
2022-12-11T03:08:44.587Z,10.40
2022-12-11T03:11:11.973Z,12.90
2022-12-11T03:13:39.191Z,9.25
2022-12-11T03:16:11.694Z,13.45
2022-12-11T03:19:10.541Z,13.13
2022-12-11T03:21:45.948Z,12.77
2022-12-11T03:24:28.535Z,14.27
2022-12-11T03:26:58.428Z,13.50
2022-12-11T03:29:37.845Z,12.90
2022-12-11T03:32:09.351Z,12.93
2022-12-11T03:34:44.593Z,11.32
2022-12-11T03:37:11.683Z,12.65
2022-12-11T03:39:39.998Z,13.10
2022-12-11T03:42:07.725Z,13.88
2022-12-11T03:44:34.294Z,13.48
2022-12-11T03:47:01.333Z,14.52
2022-12-11T03:49:29.188Z,13.20
2022-12-11T03:51:56.350Z,11.65
2022-12-11T03:54:23.128Z,11.25
2022-12-11T03:56:49.571Z,10.57
2022-12-11T03:59:15.986Z,11.18
2022-12-11T04:01:42.488Z,12.93
2022-12-11T04:04:09.013Z,10.25
2022-12-11T04:06:35.437Z,11.65
2022-12-11T04:09:01.865Z,11.70
2022-12-11T04:11:28.245Z,10.40
2022-12-11T04:13:54.633Z,15.85
2022-12-11T04:16:21.099Z,13.63
2022-12-11T04:18:47.537Z,11.20
2022-12-11T04:21:13.995Z,12.07
2022-12-11T04:23:40.383Z,13.43
2022-12-11T04:26:17.065Z,12.82
2022-12-11T04:28:43.876Z,10.73
2022-12-11T04:31:14.326Z,13.30
2022-12-11T04:33:40.814Z,13.93
2022-12-11T04:36:07.662Z,9.68
2022-12-11T04:38:34.034Z,11.18
2022-12-11T04:41:06.465Z,12.88
2022-12-11T04:43:32.934Z,14.10
2022-12-11T04:46:02.118Z,12.88
2022-12-11T04:48:28.550Z,12.25
2022-12-11T04:50:54.949Z,11.65
2022-12-11T04:53:21.346Z,13.70
2022-12-11T04:55:47.722Z,11.23
2022-12-11T04:58:14.149Z,12.77
2022-12-11T05:00:41.180Z,13.82
2022-12-11T05:03:07.976Z,11.52
2022-12-11T05:05:34.522Z,11.43
2022-12-11T05:08:00.960Z,12.77
2022-12-11T05:10:27.407Z,13.10
2022-12-11T05:12:53.809Z,11.68
2022-12-11T05:15:20.191Z,13.18
2022-12-11T05:17:46.641Z,11.82
2022-12-11T05:20:13.025Z,13.13
2022-12-11T05:22:39.507Z,13.30
2022-12-11T05:25:06.630Z,15.75
2022-12-11T05:27:33.192Z,12.32
2022-12-11T05:29:59.835Z,12.05
2022-12-11T05:32:26.334Z,12.38
2022-12-11T05:34:52.716Z,14.27
2022-12-11T05:37:19.127Z,12.75
2022-12-11T05:39:45.525Z,9.60
2022-12-11T05:42:11.917Z,12.38
2022-12-11T05:44:38.316Z,11.02
2022-12-11T05:47:04.783Z,11.40
2022-12-11T05:49:31.344Z,11.55
2022-12-11T05:51:57.787Z,12.80
2022-12-11T05:54:24.193Z,13.80
2022-12-11T05:56:50.609Z,10.35
2022-12-11T05:59:17.078Z,12.32
2022-12-11T06:01:43.625Z,11.05
2022-12-11T06:04:10.837Z,11.00
2022-12-11T06:06:37.231Z,8.02
2022-12-11T06:09:03.987Z,10.05
2022-12-11T06:11:31.324Z,12.45
2022-12-11T06:13:57.816Z,11.57
2022-12-11T06:16:24.317Z,9.30
2022-12-11T06:18:50.870Z,9.88
2022-12-11T06:21:19.341Z,11.02
2022-12-11T06:23:46.365Z,8.82
2022-12-11T06:26:12.906Z,9.38
2022-12-11T06:28:39.440Z,7.50
2022-12-11T06:31:05.908Z,9.00
2022-12-11T06:33:32.378Z,10.85
2022-12-11T06:36:05.703Z,9.27
2022-12-11T06:38:32.174Z,7.60
2022-12-11T06:40:59.323Z,7.30
2022-12-11T06:43:25.724Z,9.20
2022-12-11T06:45:52.169Z,9.27
2022-12-11T06:48:19.464Z,7.47
2022-12-11T06:50:46.089Z,7.93
2022-12-11T06:53:13.105Z,7.30
2022-12-11T06:55:39.579Z,9.55
2022-12-11T06:58:05.966Z,7.32
2022-12-11T07:00:32.374Z,9.40
2022-12-11T07:02:58.769Z,9.70
2022-12-11T07:05:25.196Z,10.90
2022-12-11T07:07:53.750Z,10.48
2022-12-11T07:10:25.737Z,9.55
2022-12-11T07:12:54.947Z,8.75
2022-12-11T07:15:21.371Z,13.85
2022-12-11T07:17:47.759Z,10.60
2022-12-11T07:20:17.754Z,8.60
2022-12-11T07:22:48.892Z,10.38
2022-12-11T07:25:15.722Z,8.45
2022-12-11T07:27:42.097Z,8.90
2022-12-11T07:30:09.298Z,10.30
2022-12-11T07:32:35.715Z,9.25
2022-12-11T07:35:02.150Z,8.75
2022-12-11T07:37:28.544Z,9.40
2022-12-11T07:39:55.031Z,8.38
2022-12-11T07:42:21.417Z,9.68
2022-12-11T07:44:47.812Z,8.82
2022-12-11T07:47:14.210Z,10.80
2022-12-11T07:49:40.589Z,13.65
2022-12-11T07:52:06.982Z,11.52
2022-12-11T07:54:33.377Z,9.70
2022-12-11T07:56:59.781Z,11.85
2022-12-11T07:59:26.158Z,10.98
2022-12-11T08:01:52.572Z,12.50
2022-12-11T08:04:18.950Z,10.18
2022-12-11T08:06:45.361Z,10.63
2022-12-11T08:09:17.484Z,12.13
2022-12-11T08:11:51.225Z,13.35
2022-12-11T08:14:18.037Z,11.13
2022-12-11T08:16:44.657Z,12.30
2022-12-11T08:19:13.988Z,11.65
2022-12-11T08:21:40.402Z,12.25
2022-12-11T08:24:07.974Z,12.18
2022-12-11T08:26:34.572Z,12.10
2022-12-11T08:29:01.267Z,12.95
2022-12-11T08:31:27.809Z,12.18
2022-12-11T08:33:55.087Z,12.23
2022-12-11T08:36:21.920Z,13.70
2022-12-11T08:38:48.436Z,12.82
2022-12-11T08:41:22.550Z,12.57
2022-12-11T08:44:00.010Z,10.50
2022-12-11T08:46:28.271Z,10.75
2022-12-11T08:48:57.825Z,11.00
2022-12-11T08:51:25.530Z,12.50
2022-12-11T08:53:53.982Z,10.63
2022-12-11T08:56:20.493Z,12.18
2022-12-11T08:58:47.309Z,12.75
2022-12-11T09:01:15.310Z,12.77
2022-12-11T09:03:44.616Z,13.27
2022-12-11T09:06:12.782Z,9.88
2022-12-11T09:08:39.371Z,10.15
2022-12-11T09:11:10.370Z,10.63
2022-12-11T09:13:37.246Z,9.45
2022-12-11T09:16:08.006Z,10.35
2022-12-11T09:18:34.631Z,10.48
2022-12-11T09:21:05.836Z,12.63
2022-12-11T09:23:32.514Z,9.55
2022-12-11T09:25:58.985Z,9.85
2022-12-11T09:28:25.575Z,11.27
2022-12-11T09:30:52.082Z,10.95
2022-12-11T09:33:18.503Z,10.10
2022-12-11T09:35:44.894Z,11.70
2022-12-11T09:38:11.301Z,9.98
2022-12-11T09:40:41.397Z,8.50
2022-12-11T09:45:35.983Z,11.15
2022-12-11T09:48:02.398Z,9.48
2022-12-11T09:50:31.890Z,9.75
2022-12-11T09:53:18.762Z,11.50
2022-12-11T09:55:49.315Z,9.75
2022-12-11T09:58:48.114Z,9.98
2022-12-11T10:01:26.395Z,10.25
2022-12-11T10:03:59.318Z,7.57
2022-12-11T10:06:33.121Z,15.02
2022-12-11T10:08:59.402Z,7.75
2022-12-11T10:11:31.804Z,13.38
2022-12-11T10:14:07.721Z,11.38
2022-12-11T10:19:02.214Z,11.05
2022-12-11T10:21:29.555Z,10.98
2022-12-11T10:24:00.581Z,8.18
2022-12-11T10:26:27.750Z,8.18
2022-12-11T10:28:54.154Z,9.30
2022-12-11T10:31:41.615Z,8.10
2022-12-11T10:34:41.483Z,8.38
2022-12-11T10:37:07.870Z,8.18
2022-12-11T10:39:34.276Z,7.72
2022-12-11T10:42:00.653Z,10.38
2022-12-11T10:44:30.810Z,8.80
2022-12-11T10:47:23.253Z,11.20
2022-12-11T10:50:02.312Z,7.53
2022-12-11T10:52:32.225Z,11.70
2022-12-11T10:55:03.628Z,9.90
2022-12-11T10:57:32.211Z,10.30
2022-12-11T10:59:58.649Z,7.75
2022-12-11T11:02:30.935Z,10.20
2022-12-11T11:04:58.623Z,10.15
2022-12-11T11:07:34.476Z,9.48
2022-12-11T11:10:15.508Z,11.30
2022-12-11T11:12:45.610Z,10.77
2022-12-11T11:17:55.506Z,10.48
2022-12-11T11:20:29.736Z,11.38
2022-12-11T11:22:57.710Z,8.55
2022-12-11T11:25:28.858Z,9.55
2022-12-11T11:28:05.476Z,8.43
2022-12-11T11:30:39.525Z,9.88
2022-12-11T11:33:26.097Z,9.90
2022-12-11T11:36:03.496Z,9.45
2022-12-11T11:38:42.869Z,8.32
2022-12-11T11:41:36.017Z,7.93
2022-12-11T11:44:04.412Z,9.70
2022-12-11T11:46:37.292Z,12.05
2022-12-11T11:49:12.809Z,17.17
2022-12-11T11:51:47.722Z,12.13
2022-12-11T11:54:51.715Z,10.23
2022-12-11T11:57:32.449Z,11.02
2022-12-11T12:00:21.410Z,10.93
2022-12-11T12:02:56.153Z,11.38
2022-12-11T12:05:59.693Z,11.75
2022-12-11T12:08:46.922Z,10.55
2022-12-11T12:11:20.075Z,8.88
2022-12-11T12:14:00.559Z,9.35
2022-12-11T12:16:52.796Z,8.90
2022-12-11T12:19:38.393Z,11.27
2022-12-11T12:22:35.756Z,11.55
2022-12-11T12:25:15.543Z,11.20
2022-12-11T12:27:52.766Z,10.00
2022-12-11T12:30:22.983Z,9.90
2022-12-11T12:32:56.149Z,9.88
2022-12-11T12:36:06.794Z,11.57
2022-12-11T12:38:40.117Z,12.07
2022-12-11T12:41:16.072Z,9.40
2022-12-11T12:46:38.836Z,7.60
2022-12-11T12:49:05.247Z,10.48
2022-12-11T12:51:31.634Z,10.35
2022-12-11T12:54:00.643Z,9.15
2022-12-11T12:56:27.810Z,8.48
2022-12-11T12:58:54.230Z,8.93
2022-12-11T13:01:22.714Z,8.23
2022-12-11T13:03:56.800Z,7.43
2022-12-11T13:06:50.697Z,8.90
2022-12-11T13:09:17.011Z,10.38
2022-12-11T13:11:43.501Z,9.80
2022-12-11T13:14:16.170Z,10.48
2022-12-11T13:16:43.768Z,9.45
2022-12-11T13:19:22.551Z,10.43
2022-12-11T13:22:04.071Z,12.05
2022-12-11T13:24:31.400Z,8.70
2022-12-11T13:27:11.251Z,11.18
2022-12-11T13:29:41.625Z,8.35
2022-12-11T13:32:07.923Z,8.00
2022-12-11T13:34:42.858Z,11.88
2022-12-11T13:37:40.209Z,8.60
2022-12-11T13:40:28.053Z,11.60
2022-12-11T13:42:59.542Z,9.85
2022-12-11T13:45:28.513Z,10.40
2022-12-11T13:47:57.902Z,9.43
2022-12-11T13:50:26.339Z,7.20
2022-12-11T13:52:54.006Z,8.90
2022-12-11T13:55:23.446Z,9.93
2022-12-11T13:57:49.851Z,10.30
2022-12-11T14:00:34.384Z,11.38
2022-12-11T14:03:05.160Z,11.77
2022-12-11T14:05:31.537Z,11.65
2022-12-11T14:07:59.540Z,11.02
2022-12-11T14:10:27.472Z,10.02
2022-12-11T14:12:53.781Z,8.45
2022-12-11T14:15:20.331Z,9.52
2022-12-11T14:17:51.539Z,7.28
2022-12-11T14:20:32.380Z,9.38
2022-12-11T14:23:22.065Z,14.32
2022-12-11T14:26:18.746Z,10.98
2022-12-11T14:28:45.143Z,10.77
2022-12-11T14:31:14.480Z,10.63
2022-12-11T14:33:43.374Z,10.40
2022-12-11T14:36:09.986Z,8.43
2022-12-11T14:38:44.460Z,12.48
2022-12-11T14:41:19.927Z,11.13
2022-12-11T14:43:48.779Z,9.75
2022-12-11T14:46:21.948Z,9.57
2022-12-11T14:48:59.085Z,9.90
2022-12-11T14:51:28.138Z,8.18
2022-12-11T14:53:54.553Z,13.00
2022-12-11T14:56:22.723Z,9.20
2022-12-11T14:58:59.141Z,9.25
2022-12-11T15:01:32.634Z,9.27
2022-12-11T15:04:05.560Z,8.30
2022-12-11T15:06:33.489Z,11.15
2022-12-11T15:09:31.493Z,9.60
2022-12-11T15:11:59.517Z,10.93
2022-12-11T15:14:26.650Z,9.63
2022-12-11T15:16:54.483Z,11.68
2022-12-11T15:19:31.506Z,12.77
2022-12-11T15:22:04.541Z,8.90
2022-12-11T15:24:41.611Z,10.45
2022-12-11T15:27:28.702Z,10.57
2022-12-11T15:29:55.103Z,11.02
2022-12-11T15:32:21.510Z,10.00
2022-12-11T15:34:50.665Z,13.15
2022-12-11T15:37:33.809Z,13.15
2022-12-11T15:40:00.944Z,8.73
2022-12-11T15:42:30.316Z,12.40
2022-12-11T15:44:56.711Z,11.48
2022-12-11T15:47:24.761Z,9.88
2022-12-11T15:49:58.661Z,16.10
2022-12-11T15:52:25.105Z,10.27
2022-12-11T15:54:51.567Z,12.00
2022-12-11T15:57:22.104Z,11.10
2022-12-11T15:59:48.699Z,10.90
2022-12-11T16:02:15.403Z,9.77
2022-12-11T16:04:41.831Z,9.45
2022-12-11T16:07:23.570Z,11.30
2022-12-11T16:09:49.957Z,10.43
2022-12-11T16:12:20.114Z,14.45
2022-12-11T16:14:46.542Z,12.55
2022-12-11T16:17:13.918Z,12.88
2022-12-11T16:19:40.874Z,11.63
2022-12-11T16:22:07.428Z,13.15
2022-12-11T16:24:36.647Z,11.70
2022-12-11T16:27:03.695Z,16.23
2022-12-11T16:29:34.003Z,14.57
2022-12-11T16:32:02.283Z,18.00
2022-12-11T16:34:28.705Z,16.10
2022-12-11T16:36:57.807Z,17.55
2022-12-11T16:39:24.341Z,15.43
2022-12-11T16:41:50.813Z,17.13
2022-12-11T16:44:23.378Z,17.80
2022-12-11T16:46:51.976Z,15.30
2022-12-11T16:49:18.440Z,17.08
2022-12-11T16:51:44.940Z,19.60
2022-12-11T16:54:11.445Z,17.23
2022-12-11T16:56:40.328Z,19.77
2022-12-11T16:59:09.147Z,18.90
2022-12-11T17:01:35.592Z,19.17
2022-12-11T17:04:04.340Z,23.67
2022-12-11T17:06:30.769Z,22.95
2022-12-11T17:08:57.182Z,17.63
2022-12-11T17:11:23.785Z,17.38
2022-12-11T17:13:57.268Z,19.80
2022-12-11T17:16:24.058Z,24.08
2022-12-11T17:18:50.458Z,20.15
2022-12-11T17:21:20.542Z,19.40
2022-12-11T17:26:14.316Z,14.95
2022-12-11T17:28:40.719Z,19.27
2022-12-11T17:31:08.568Z,17.77
2022-12-11T17:33:35.221Z,16.48
2022-12-11T17:36:02.382Z,16.30
2022-12-11T17:38:28.969Z,18.80
2022-12-11T17:40:55.405Z,17.80
2022-12-11T17:43:21.812Z,18.02
2022-12-11T17:45:49.604Z,28.70
2022-12-11T17:48:16.513Z,23.85
2022-12-11T17:50:43.680Z,21.38
2022-12-11T17:53:10.417Z,21.10
2022-12-11T17:55:40.740Z,22.23
2022-12-11T17:58:07.184Z,16.98
2022-12-11T18:00:33.649Z,18.35
2022-12-11T18:03:00.072Z,17.20
2022-12-11T18:05:26.516Z,18.50
2022-12-11T18:07:57.409Z,18.75
2022-12-11T18:10:25.951Z,15.77
2022-12-11T18:12:52.503Z,23.20
2022-12-11T18:15:19.012Z,18.25
2022-12-11T18:17:45.748Z,16.17
2022-12-11T18:20:13.311Z,20.35
2022-12-11T18:22:39.745Z,18.73
2022-12-11T18:25:10.031Z,21.52
2022-12-11T18:27:38.101Z,15.77
2022-12-11T18:30:04.801Z,18.88
2022-12-11T18:32:31.180Z,19.02
2022-12-11T18:34:57.577Z,21.55
2022-12-11T18:37:27.897Z,17.27
2022-12-11T18:39:54.701Z,18.38
2022-12-11T18:42:36.423Z,21.55
2022-12-11T18:45:03.746Z,19.27
2022-12-11T18:47:30.342Z,22.98
2022-12-11T18:49:56.746Z,25.27
2022-12-11T18:52:23.125Z,20.60
2022-12-11T18:54:49.557Z,23.02
2022-12-11T18:57:15.978Z,22.75
2022-12-11T18:59:42.405Z,23.98
2022-12-11T19:02:10.595Z,20.27
2022-12-11T19:04:37.014Z,19.48
2022-12-11T19:07:03.516Z,22.90
2022-12-11T19:09:32.786Z,18.02
2022-12-11T19:12:03.588Z,16.80
2022-12-11T19:14:30.006Z,20.38
2022-12-11T19:16:56.392Z,17.55
2022-12-11T19:19:23.313Z,17.98
2022-12-11T19:21:49.746Z,19.80
2022-12-11T19:24:18.402Z,18.65
2022-12-11T19:26:45.044Z,18.08
2022-12-11T19:29:36.115Z,18.73
2022-12-11T19:32:02.603Z,19.75
2022-12-11T19:34:29.027Z,17.98
2022-12-11T19:36:55.489Z,22.73
2022-12-11T19:39:21.911Z,21.73
2022-12-11T19:41:48.478Z,30.13
2022-12-11T19:44:14.893Z,21.50
2022-12-11T19:46:41.391Z,27.00
2022-12-11T19:49:07.863Z,27.52
2022-12-11T19:51:36.864Z,26.35
2022-12-11T19:54:03.318Z,24.25
2022-12-11T19:56:29.970Z,26.02
2022-12-11T19:58:58.443Z,26.83
2022-12-11T20:01:33.008Z,27.73
2022-12-11T20:04:01.548Z,22.98
2022-12-11T20:06:28.921Z,23.27
2022-12-11T20:08:55.388Z,29.73
2022-12-11T20:11:22.785Z,23.65
2022-12-11T20:13:49.472Z,26.05
2022-12-11T20:16:16.329Z,20.83
2022-12-11T20:18:44.007Z,19.85
2022-12-11T20:21:12.981Z,17.83
2022-12-11T20:23:40.921Z,18.80
2022-12-11T20:26:12.335Z,22.83
2022-12-11T20:28:38.771Z,22.83
2022-12-11T20:31:08.257Z,20.25
2022-12-11T20:33:34.673Z,19.05
2022-12-11T20:36:01.646Z,18.98
2022-12-11T20:38:34.100Z,19.42
2022-12-11T20:41:00.869Z,21.38
2022-12-11T20:43:27.289Z,18.88
2022-12-11T20:45:54.836Z,19.38
2022-12-11T20:48:21.295Z,19.52
2022-12-11T20:50:47.691Z,19.45
2022-12-11T20:53:14.328Z,21.92
2022-12-11T20:55:41.186Z,21.98
2022-12-11T20:58:08.075Z,22.05
2022-12-11T21:00:36.788Z,21.50
2022-12-11T21:03:03.550Z,20.73
2022-12-11T21:05:31.008Z,20.35
2022-12-11T21:07:57.471Z,19.02
2022-12-11T21:10:27.729Z,19.45
2022-12-11T21:12:54.153Z,20.88
2022-12-11T21:15:20.564Z,24.63
2022-12-11T21:17:46.973Z,24.75
2022-12-11T21:20:13.416Z,23.63
2022-12-11T21:22:39.892Z,23.55
2022-12-11T21:25:06.539Z,22.85
2022-12-11T21:27:32.948Z,23.17
2022-12-11T21:30:00.600Z,24.48
2022-12-11T21:32:27.063Z,21.92
2022-12-11T21:34:53.456Z,22.13
2022-12-11T21:37:19.832Z,21.40
2022-12-11T21:39:46.227Z,23.40
2022-12-11T21:42:12.652Z,21.13
2022-12-11T21:47:25.531Z,22.17
2022-12-11T21:49:51.940Z,20.58
2022-12-11T21:52:18.341Z,23.92
2022-12-11T21:54:45.878Z,23.75
2022-12-11T21:57:13.027Z,18.63
2022-12-11T21:59:39.428Z,20.08
2022-12-11T22:02:05.889Z,21.38
2022-12-11T22:04:32.374Z,22.58
2022-12-11T22:06:58.806Z,26.05
2022-12-11T22:09:25.501Z,20.25
2022-12-11T22:11:57.919Z,21.52
2022-12-11T22:14:25.430Z,20.27
2022-12-11T22:16:51.837Z,17.23
2022-12-11T22:19:18.272Z,20.60
2022-12-11T22:21:44.668Z,21.95
2022-12-11T22:24:11.074Z,25.58
2022-12-11T22:26:39.964Z,25.20
2022-12-11T22:29:06.382Z,22.38
2022-12-11T22:31:32.772Z,19.77
2022-12-11T22:33:59.193Z,20.35
2022-12-11T22:36:28.650Z,23.50
2022-12-11T22:38:55.045Z,21.55
2022-12-11T22:41:30.862Z,23.98
2022-12-11T22:43:57.611Z,23.75
2022-12-11T22:46:26.132Z,25.10
2022-12-11T22:48:53.793Z,26.70
2022-12-11T22:51:20.291Z,24.38
2022-12-11T22:53:46.693Z,22.50
2022-12-11T22:56:13.624Z,21.92
2022-12-11T22:58:40.090Z,23.00
2022-12-11T23:01:14.236Z,20.90
2022-12-11T23:03:40.746Z,22.20
2022-12-11T23:06:07.883Z,19.48
2022-12-11T23:08:34.798Z,19.42
2022-12-11T23:11:01.275Z,26.27
2022-12-11T23:13:27.705Z,24.17
2022-12-11T23:15:54.107Z,23.67
2022-12-11T23:18:20.515Z,23.83
2022-12-11T23:20:46.898Z,21.17
2022-12-11T23:23:13.311Z,23.48
2022-12-11T23:25:39.684Z,19.73
2022-12-11T23:28:06.087Z,23.30
2022-12-11T23:30:32.526Z,21.42
2022-12-11T23:32:58.948Z,23.40
2022-12-11T23:35:25.313Z,23.20
2022-12-11T23:37:51.692Z,22.15
2022-12-11T23:40:18.147Z,20.08
2022-12-11T23:42:44.594Z,25.35
2022-12-11T23:45:11.519Z,20.55
2022-12-11T23:47:38.131Z,23.50
2022-12-11T23:50:04.992Z,20.85
2022-12-11T23:52:31.376Z,22.05
2022-12-11T23:54:57.784Z,24.58
2022-12-11T23:57:24.152Z,26.20
2022-12-11T23:59:50.571Z,22.17
